Time;durP1;ratioP1;P1;durP2;ratioP2;P2;SDS_P1;SDS_P2;PMS_P1;PMS_P2;Temp;Humidity;BMP_temperature;BMP_pressure;BME280_temperature;BME280_humidity;BME280_pressure;Samples;Min_cycle;Max_cycle;Signal;HPM_P1;HPM_P2
2021/08/02 04:01:47;;;;;;;3.30;2.65;;;13.50;99.90;;;;;;5328714;23;20709;-73
2021/08/02 04:04:14;;;;;;;2.55;2.45;;;13.50;99.90;;;;;;4937583;29;20261;-73
2021/08/02 04:06:41;;;;;;;2.78;2.50;;;13.50;99.90;;;;;;4938114;29;20210;-72
2021/08/02 04:09:10;;;;;;;2.08;1.98;;;13.50;99.90;;;;;;4937508;29;20257;-72
2021/08/02 04:11:37;;;;;;;4.03;2.33;;;13.50;99.90;;;;;;4938171;29;20252;-73
2021/08/02 04:14:04;;;;;;;5.05;2.55;;;13.50;99.90;;;;;;4922447;29;20821;-73
2021/08/02 04:16:31;;;;;;;3.58;2.45;;;13.50;99.90;;;;;;4931758;29;20206;-72
2021/08/02 04:18:59;;;;;;;5.95;2.55;;;13.50;99.90;;;;;;4933186;29;20261;-72
2021/08/02 04:21:26;;;;;;;2.50;2.33;;;13.50;99.90;;;;;;4934676;29;20226;-73
2021/08/02 04:23:54;;;;;;;2.40;2.30;;;13.60;99.90;;;;;;4937239;29;20627;-73
2021/08/02 04:26:21;;;;;;;4.18;2.47;;;13.70;99.90;;;;;;4934683;29;20206;-73
2021/08/02 04:28:49;;;;;;;2.80;2.50;;;13.70;99.90;;;;;;4936770;29;20280;-73
2021/08/02 04:31:16;;;;;;;2.60;2.47;;;13.80;99.90;;;;;;4924659;29;20481;-73
2021/08/02 04:33:43;;;;;;;7.75;2.50;;;13.80;99.90;;;;;;4930598;29;20254;-73
2021/08/02 04:36:12;;;;;;;4.83;2.90;;;13.80;99.90;;;;;;4932465;29;20222;-73
2021/08/02 04:38:38;;;;;;;2.60;2.40;;;13.90;99.90;;;;;;4918741;29;20469;-72
2021/08/02 04:41:05;;;;;;;5.37;2.20;;;13.90;99.90;;;;;;4922604;29;20554;-73
2021/08/02 04:43:31;;;;;;;5.03;3.07;;;13.90;99.90;;;;;;4918778;29;20530;-73
2021/08/02 04:45:58;;;;;;;2.33;2.20;;;13.90;99.90;;;;;;4923258;29;20550;-73
2021/08/02 04:48:25;;;;;;;2.30;2.10;;;14.00;99.90;;;;;;4918704;29;20471;-73
2021/08/02 04:50:51;;;;;;;2.47;2.10;;;14.00;99.90;;;;;;4921925;29;20286;-73
2021/08/02 04:53:19;;;;;;;4.57;2.23;;;14.10;99.90;;;;;;4930461;29;20461;-73
2021/08/02 04:55:46;;;;;;;3.73;3.50;;;14.10;99.90;;;;;;4930393;29;20454;-70
2021/08/02 04:58:13;;;;;;;3.60;2.27;;;14.10;99.90;;;;;;4925660;29;20474;-70
2021/08/02 05:00:40;;;;;;;3.13;2.63;;;14.20;99.90;;;;;;4929149;29;20494;-71
2021/08/02 05:03:06;;;;;;;2.40;2.20;;;14.20;99.90;;;;;;4927503;29;20538;-70
2021/08/02 05:05:33;;;;;;;2.50;2.10;;;14.30;99.90;;;;;;4928310;29;20869;-70
2021/08/02 05:08:00;;;;;;;3.60;2.50;;;14.30;99.90;;;;;;4928593;29;20972;-71
2021/08/02 05:10:28;;;;;;;4.20;2.40;;;14.40;99.90;;;;;;4933786;29;20564;-72
2021/08/02 05:12:54;;;;;;;2.53;2.07;;;14.50;99.90;;;;;;4931640;29;20470;-73
2021/08/02 05:15:21;;;;;;;2.70;2.43;;;14.50;99.90;;;;;;4927977;29;20882;-73
2021/08/02 05:17:47;;;;;;;4.70;2.53;;;14.60;99.90;;;;;;4935286;29;20462;-73
2021/08/02 05:20:18;;;;;;;2.37;2.17;;;14.60;99.90;;;;;;4931497;29;20479;-73
2021/08/02 05:22:44;;;;;;;5.03;2.47;;;14.60;99.90;;;;;;4924847;29;20488;-73
2021/08/02 05:25:11;;;;;;;3.60;2.07;;;14.70;99.90;;;;;;4932552;29;20459;-73
2021/08/02 05:27:40;;;;;;;2.03;2.00;;;14.70;99.90;;;;;;4923893;29;20971;-71
2021/08/02 05:30:07;;;;;;;3.10;2.90;;;14.80;99.90;;;;;;4930870;29;20486;-70
2021/08/02 05:32:34;;;;;;;2.00;1.90;;;14.80;99.90;;;;;;4922021;29;20454;-70
2021/08/02 05:35:01;;;;;;;2.60;2.50;;;14.80;99.90;;;;;;4931449;29;20467;-68
2021/08/02 05:37:27;;;;;;;3.13;1.90;;;14.90;99.90;;;;;;4920459;29;20463;-68
2021/08/02 05:39:54;;;;;;;2.87;2.07;;;14.90;99.90;;;;;;4932242;29;20837;-68
2021/08/02 05:42:21;;;;;;;4.33;2.30;;;14.90;99.90;;;;;;4917796;29;20993;-71
2021/08/02 05:44:49;;;;;;;2.53;2.33;;;14.90;99.90;;;;;;4933002;29;20469;-68
2021/08/02 05:47:15;;;;;;;4.17;1.83;;;15.00;99.90;;;;;;4918066;29;20819;-70
2021/08/02 05:49:42;;;;;;;3.40;2.17;;;15.10;99.90;;;;;;4917829;29;20470;-68
2021/08/02 05:52:09;;;;;;;2.27;2.13;;;15.10;99.90;;;;;;4918105;29;20552;-68
2021/08/02 05:54:35;;;;;;;3.20;2.00;;;15.10;99.90;;;;;;4918654;29;20469;-68
2021/08/02 05:57:02;;;;;;;1.83;1.83;;;15.30;99.90;;;;;;4929357;29;20520;-67
2021/08/02 05:59:29;;;;;;;2.20;2.10;;;15.40;99.90;;;;;;4929968;29;20562;-67
2021/08/02 06:01:59;;;;;;;2.57;2.47;;;15.50;99.90;;;;;;4920196;29;20594;-67
2021/08/02 06:04:26;;;;;;;4.20;3.97;;;15.60;99.90;;;;;;4917231;29;20471;-68
2021/08/02 06:06:53;;;;;;;1.93;1.80;;;15.70;99.90;;;;;;4917465;29;20545;-67
2021/08/02 06:09:21;;;;;;;1.90;1.80;;;15.80;99.90;;;;;;4916427;29;20528;-67
2021/08/02 06:11:47;;;;;;;1.90;1.80;;;15.80;99.90;;;;;;4926913;29;21069;-67
2021/08/02 06:14:14;;;;;;;4.00;1.80;;;15.90;99.90;;;;;;4926880;29;20470;-68
2021/08/02 06:16:41;;;;;;;2.37;2.00;;;16.00;99.90;;;;;;4920661;29;20471;-67
2021/08/02 06:19:09;;;;;;;4.00;1.83;;;16.00;99.90;;;;;;4916671;29;20490;-67
2021/08/02 06:21:36;;;;;;;1.70;1.50;;;16.10;99.90;;;;;;4916624;29;20505;-67
2021/08/02 06:24:02;;;;;;;1.80;1.80;;;16.10;99.90;;;;;;4918015;29;20502;-68
2021/08/02 06:26:30;;;;;;;3.53;2.40;;;16.20;99.90;;;;;;4934595;29;20468;-70
2021/08/02 06:28:57;;;;;;;3.90;2.13;;;16.30;99.90;;;;;;4934468;29;20888;-70
2021/08/02 06:31:24;;;;;;;2.57;1.90;;;16.40;99.90;;;;;;4921892;29;20487;-69
2021/08/02 06:33:51;;;;;;;1.57;1.47;;;16.50;99.90;;;;;;4916166;29;20478;-69
2021/08/02 06:36:20;;;;;;;2.87;1.53;;;16.50;99.90;;;;;;4925517;29;20465;-69
2021/08/02 06:38:47;;;;;;;2.67;1.90;;;16.60;99.90;;;;;;4931911;29;20545;-70
2021/08/02 06:41:14;;;;;;;1.90;1.60;;;16.50;99.90;;;;;;4917798;29;20854;-68
2021/08/02 06:43:41;;;;;;;5.00;1.67;;;16.60;99.90;;;;;;4917069;29;20502;-69
2021/08/02 06:46:07;;;;;;;2.03;1.90;;;16.60;99.90;;;;;;4928088;29;20466;-71
2021/08/02 06:48:34;;;;;;;6.00;1.57;;;16.70;99.90;;;;;;4927742;29;20466;-69
2021/08/02 06:51:02;;;;;;;2.13;1.80;;;16.80;99.90;;;;;;4922587;29;20521;-69
2021/08/02 06:53:30;;;;;;;5.10;1.83;;;16.90;99.90;;;;;;4917287;29;20469;-68
2021/08/02 06:55:56;;;;;;;2.13;1.90;;;17.00;99.90;;;;;;4922281;29;20471;-69
2021/08/02 06:58:23;;;;;;;3.80;1.90;;;17.10;99.90;;;;;;4916336;29;20530;-69
2021/08/02 07:00:50;;;;;;;3.63;1.70;;;17.10;99.90;;;;;;4923584;29;20497;-69
2021/08/02 07:03:16;;;;;;;2.97;1.80;;;17.20;99.90;;;;;;4916931;29;20498;-69
2021/08/02 07:05:43;;;;;;;4.33;1.90;;;17.20;99.90;;;;;;4919565;29;20470;-69
2021/08/02 07:08:10;;;;;;;2.77;1.90;;;17.20;99.90;;;;;;4917896;29;20474;-69
2021/08/02 07:10:38;;;;;;;2.10;1.73;;;17.30;99.90;;;;;;4916818;29;20999;-69
2021/08/02 07:13:04;;;;;;;2.30;1.53;;;17.40;99.90;;;;;;4924896;29;20843;-69
2021/08/02 07:15:31;;;;;;;1.70;1.60;;;17.30;99.90;;;;;;4918639;29;20554;-68
2021/08/02 07:17:58;;;;;;;1.50;1.50;;;17.30;99.90;;;;;;4924720;29;20854;-68
2021/08/02 07:20:24;;;;;;;4.13;2.30;;;17.40;99.90;;;;;;4935344;29;20915;-69
2021/08/02 07:22:52;;;;;;;2.83;2.10;;;17.40;99.90;;;;;;4928622;29;20528;-68
2021/08/02 07:25:19;;;;;;;3.60;1.67;;;17.60;99.90;;;;;;4934120;29;20585;-69
2021/08/02 07:27:47;;;;;;;1.80;1.40;;;17.60;99.90;;;;;;4928752;29;20463;-70
2021/08/02 07:30:14;;;;;;;1.70;1.60;;;17.80;99.90;;;;;;4916185;29;20458;-69
2021/08/02 07:32:41;;;;;;;3.07;1.67;;;18.20;99.90;;;;;;4925652;29;20477;-69
2021/08/02 07:35:08;;;;;;;2.40;1.20;;;18.30;99.90;;;;;;4928789;29;20474;-69
2021/08/02 07:37:35;;;;;;;1.33;1.33;;;18.50;99.90;;;;;;4915843;29;20470;-69
2021/08/02 07:40:02;;;;;;;3.37;1.57;;;18.80;99.90;;;;;;4917659;29;21003;-69
2021/08/02 07:42:29;;;;;;;1.10;1.10;;;19.00;99.90;;;;;;4934308;29;21001;-70
2021/08/02 07:44:57;;;;;;;1.73;1.43;;;19.00;99.90;;;;;;4927624;29;20467;-70
2021/08/02 07:47:23;;;;;;;2.03;1.93;;;19.00;99.90;;;;;;4934799;29;20888;-70
2021/08/02 07:49:50;;;;;;;1.50;1.50;;;19.00;99.90;;;;;;4926006;29;20540;-69
2021/08/02 07:52:17;;;;;;;2.33;1.50;;;19.00;99.90;;;;;;4916290;29;20514;-70
2021/08/02 07:54:44;;;;;;;1.60;1.30;;;19.10;99.90;;;;;;4928170;29;20497;-69
2021/08/02 07:57:10;;;;;;;1.23;1.23;;;19.00;99.90;;;;;;4916206;29;20498;-68
2021/08/02 07:59:37;;;;;;;2.90;1.30;;;18.90;99.90;;;;;;4927895;29;20462;-70
2021/08/02 08:02:05;;;;;;;2.60;1.40;;;19.10;99.90;;;;;;4917929;29;20556;-70
2021/08/02 08:04:33;;;;;;;2.13;1.20;;;19.40;99.90;;;;;;4921674;29;20561;-69
2021/08/02 08:06:59;;;;;;;1.87;1.47;;;19.60;99.90;;;;;;4921957;29;20611;-67
2021/08/02 08:09:26;;;;;;;1.40;1.30;;;19.60;99.90;;;;;;4914753;29;20549;-68
2021/08/02 08:11:53;;;;;;;7.10;1.70;;;19.70;99.90;;;;;;4922707;29;20830;-68
2021/08/02 08:14:19;;;;;;;3.27;1.20;;;19.70;99.90;;;;;;4935990;29;20789;-69
2021/08/02 08:16:46;;;;;;;1.50;1.40;;;19.80;99.90;;;;;;4937771;29;21013;-71
2021/08/02 08:19:14;;;;;;;1.70;1.30;;;19.90;99.90;;;;;;4922615;29;20462;-71
2021/08/02 08:21:41;;;;;;;1.30;1.20;;;19.90;99.90;;;;;;4919495;29;20486;-71
2021/08/02 08:24:07;;;;;;;1.50;1.50;;;19.90;99.90;;;;;;4917991;29;20524;-71
2021/08/02 08:26:35;;;;;;;2.60;1.30;;;19.80;99.90;;;;;;4918801;29;20470;-71
2021/08/02 08:29:02;;;;;;;2.00;1.27;;;19.90;99.90;;;;;;4917479;29;20541;-71
2021/08/02 08:31:29;;;;;;;2.30;1.30;;;19.80;99.90;;;;;;4921751;29;20486;-72
2021/08/02 08:33:56;;;;;;;1.40;1.37;;;19.70;99.90;;;;;;4917924;29;20466;-71
2021/08/02 08:36:24;;;;;;;1.63;1.53;;;19.50;99.90;;;;;;4918584;29;20884;-71
2021/08/02 08:38:52;;;;;;;3.67;1.83;;;19.40;99.90;;;;;;4917375;29;20474;-71
2021/08/02 08:41:19;;;;;;;2.20;1.40;;;19.50;99.90;;;;;;4918245;29;20847;-69
2021/08/02 08:43:46;;;;;;;2.00;1.87;;;19.50;99.90;;;;;;4916760;29;20482;-70
2021/08/02 08:46:13;;;;;;;3.50;2.10;;;19.80;99.90;;;;;;4917519;29;20959;-70
2021/08/02 08:48:40;;;;;;;2.53;1.60;;;20.00;99.90;;;;;;4917944;29;20943;-71
2021/08/02 08:51:07;;;;;;;1.50;1.40;;;20.20;99.90;;;;;;4917906;29;20493;-70
2021/08/02 08:53:35;;;;;;;3.03;1.60;;;20.40;99.90;;;;;;4917756;29;20463;-71
2021/08/02 08:56:02;;;;;;;1.07;1.07;;;20.50;99.90;;;;;;4917265;29;20458;-72
2021/08/02 08:58:29;;;;;;;1.70;1.23;;;20.10;99.90;;;;;;4917842;29;20483;-72
2021/08/02 09:01:03;;;;;;;2.63;1.10;;;20.00;99.90;;;;;;4917652;29;20512;-70
2021/08/02 09:03:30;;;;;;;1.67;1.40;;;19.90;99.90;;;;;;4917387;29;20502;-70
2021/08/02 09:06:04;;;;;;;1.47;1.37;;;19.80;99.90;;;;;;4917789;29;20466;-71
2021/08/02 09:08:31;;;;;;;2.53;1.00;;;20.00;99.90;;;;;;4920162;29;20530;-70
2021/08/02 09:11:00;;;;;;;2.80;1.13;;;20.20;99.90;;;;;;4935710;29;20485;-70
2021/08/02 09:13:31;;;;;;;2.93;1.10;;;20.00;99.90;;;;;;4932428;29;20462;-70
2021/08/02 09:15:58;;;;;;;1.23;1.23;;;20.00;99.90;;;;;;4917942;29;20509;-70
2021/08/02 09:18:25;;;;;;;2.63;0.93;;;20.00;99.90;;;;;;4917265;29;20458;-68
2021/08/02 09:21:03;;;;;;;1.77;1.20;;;20.00;99.90;;;;;;4917796;29;20487;-70
2021/08/02 09:23:30;;;;;;;1.00;0.97;;;20.00;99.90;;;;;;4916612;29;20504;-69
2021/08/02 09:26:01;;;;;;;1.40;0.90;;;19.90;99.90;;;;;;4917327;29;20477;-69
2021/08/02 09:28:28;;;;;;;1.50;1.40;;;19.90;99.90;;;;;;4922835;29;20485;-69
2021/08/02 09:30:57;;;;;;;1.20;1.20;;;19.70;99.90;;;;;;4925341;29;20481;-70
2021/08/02 09:33:24;;;;;;;1.60;1.50;;;19.70;99.90;;;;;;4917023;29;20473;-71
2021/08/02 09:35:52;;;;;;;1.43;1.40;;;19.90;99.90;;;;;;4917302;29;20833;-71
2021/08/02 09:38:21;;;;;;;5.00;1.43;;;20.00;99.90;;;;;;4917463;29;20466;-71
2021/08/02 09:40:49;;;;;;;1.40;1.27;;;20.10;99.90;;;;;;4918671;29;20573;-72
2021/08/02 09:43:20;;;;;;;1.70;1.33;;;20.20;99.90;;;;;;4929932;29;20541;-70
2021/08/02 09:45:50;;;;;;;2.10;1.30;;;20.30;99.90;;;;;;4934041;29;20838;-70
2021/08/02 09:48:18;;;;;;;1.10;1.10;;;20.40;99.90;;;;;;4929397;29;20525;-71
2021/08/02 09:50:46;;;;;;;2.80;1.10;;;20.50;99.90;;;;;;4936002;29;21008;-67
2021/08/02 09:53:14;;;;;;;2.20;1.00;;;20.50;99.90;;;;;;4923145;29;20482;-67
2021/08/02 09:55:43;;;;;;;1.43;1.10;;;20.50;99.90;;;;;;4916545;29;20462;-69
2021/08/02 09:58:11;;;;;;;1.30;1.20;;;20.60;99.90;;;;;;4917305;29;20466;-67
2021/08/02 10:00:40;;;;;;;1.07;1.07;;;20.70;99.90;;;;;;4917574;29;20499;-71
2021/08/02 10:03:06;;;;;;;1.67;1.00;;;20.90;99.90;;;;;;4918529;29;20553;-67
2021/08/02 10:05:37;;;;;;;1.03;1.03;;;20.90;99.90;;;;;;4917500;29;20517;-66
2021/08/02 10:08:04;;;;;;;2.00;1.37;;;21.00;99.90;;;;;;4917112;29;20463;-70
2021/08/02 10:10:31;;;;;;;2.50;2.40;;;21.10;99.90;;;;;;4925337;29;20479;-68
2021/08/02 10:12:58;;;;;;;0.90;0.90;;;21.20;99.90;;;;;;4926453;29;20623;-68
2021/08/02 10:15:27;;;;;;;0.87;0.87;;;21.20;99.90;;;;;;4917869;29;20463;-69
2021/08/02 10:17:58;;;;;;;0.80;0.67;;;21.20;99.90;;;;;;4931377;29;20492;-69
2021/08/02 10:20:26;;;;;;;2.40;1.40;;;21.30;99.90;;;;;;4917012;29;20846;-69
2021/08/02 10:22:54;;;;;;;2.60;1.00;;;21.20;99.90;;;;;;4925883;29;20472;-68
2021/08/02 10:25:32;;;;;;;0.83;0.83;;;21.10;99.90;;;;;;4924423;29;20493;-69
2021/08/02 10:28:10;;;;;;;1.10;1.00;;;20.70;99.90;;;;;;4916007;29;20538;-67
2021/08/02 10:30:37;;;;;;;1.30;1.20;;;20.60;99.90;;;;;;4916723;29;20490;-68
2021/08/02 10:33:05;;;;;;;2.67;1.50;;;20.40;99.90;;;;;;4918194;29;20534;-68
2021/08/02 10:35:38;;;;;;;1.70;1.20;;;20.20;99.90;;;;;;4926110;29;20454;-68
2021/08/02 10:38:07;;;;;;;1.10;1.10;;;20.00;99.90;;;;;;4915073;29;20840;-69
2021/08/02 10:40:47;;;;;;;11.20;2.67;;;19.80;99.90;;;;;;4915238;29;21004;-69
2021/08/02 10:43:25;;;;;;;4.53;1.50;;;19.80;99.90;;;;;;4914982;29;20463;-69
2021/08/02 10:45:52;;;;;;;3.80;1.47;;;19.90;99.90;;;;;;4924791;29;20497;-70
2021/08/02 10:48:25;;;;;;;1.00;1.00;;;20.10;99.90;;;;;;4926033;29;20822;-69
2021/08/02 10:50:51;;;;;;;1.30;1.27;;;20.20;99.90;;;;;;4917337;29;20482;-69
2021/08/02 10:53:19;;;;;;;7.00;2.10;;;20.30;99.90;;;;;;4917842;29;21086;-70
2021/08/02 10:55:47;;;;;;;2.40;2.17;;;20.30;99.90;;;;;;4915515;29;20455;-70
2021/08/02 10:58:24;;;;;;;1.37;1.37;;;20.40;99.90;;;;;;4917720;29;20462;-70
2021/08/02 11:00:56;;;;;;;1.63;1.53;;;20.70;99.90;;;;;;4933982;29;21005;-72
2021/08/02 11:03:31;;;;;;;2.50;2.10;;;20.80;99.90;;;;;;4924668;29;20925;-69
2021/08/02 11:05:59;;;;;;;1.67;1.50;;;21.00;99.90;;;;;;4922712;29;21006;-70
2021/08/02 11:08:26;;;;;;;2.40;1.30;;;21.00;99.90;;;;;;4916705;29;20470;-68
2021/08/02 11:10:52;;;;;;;2.10;1.67;;;21.10;99.90;;;;;;4934040;29;20836;-70
2021/08/02 11:13:26;;;;;;;2.43;1.30;;;21.10;99.90;;;;;;4934180;29;20473;-69
2021/08/02 11:15:53;;;;;;;0.80;0.80;;;20.90;99.90;;;;;;4934514;29;20504;-70
2021/08/02 11:18:24;;;;;;;1.60;1.50;;;21.10;99.90;;;;;;4935461;29;20537;-70
2021/08/02 11:20:53;;;;;;;1.40;1.40;;;21.10;99.90;;;;;;4933008;29;21095;-70
2021/08/02 11:23:31;;;;;;;1.10;1.07;;;21.30;99.90;;;;;;4919257;29;20462;-69
2021/08/02 11:26:05;;;;;;;2.50;1.27;;;21.60;99.90;;;;;;4915681;29;20494;-68
2021/08/02 11:28:38;;;;;;;1.53;1.03;;;21.80;99.90;;;;;;4915453;29;20879;-68
2021/08/02 11:31:05;;;;;;;2.00;1.13;;;21.70;99.90;;;;;;4916939;29;20577;-68
2021/08/02 11:33:32;;;;;;;1.47;1.00;;;21.50;99.90;;;;;;4915581;29;20545;-69
2021/08/02 11:36:00;;;;;;;2.20;1.30;;;21.20;99.90;;;;;;4915858;29;20549;-69
2021/08/02 11:38:37;;;;;;;0.97;0.97;;;21.00;99.90;;;;;;4915690;29;20466;-69
2021/08/02 11:41:04;;;;;;;2.07;1.27;;;20.70;99.90;;;;;;4921021;29;21009;-67
2021/08/02 11:43:38;;;;;;;1.27;1.27;;;20.40;99.90;;;;;;4915983;29;20463;-68
2021/08/02 11:46:05;;;;;;;1.07;1.00;;;20.30;99.90;;;;;;4923628;29;20586;-69
2021/08/02 11:48:32;;;;;;;1.37;1.37;;;20.20;99.90;;;;;;4924665;29;21069;-68
2021/08/02 11:51:00;;;;;;;0.90;0.90;;;20.10;99.90;;;;;;4926371;29;20833;-69
2021/08/02 11:53:33;;;;;;;0.97;0.97;;;19.80;99.90;;;;;;4928058;29;20864;-68
2021/08/02 11:56:00;;;;;;;0.80;0.80;;;19.50;99.90;;;;;;4935087;29;20548;-68
2021/08/02 11:58:37;;;;;;;0.93;0.80;;;18.80;99.90;;;;;;4931517;29;20878;-68
2021/08/02 12:01:04;;;;;;;0.87;0.87;;;18.30;99.90;;;;;;4926895;29;20496;-70
2021/08/02 12:03:31;;;;;;;0.63;0.63;;;17.90;99.90;;;;;;4917601;29;20505;-68
2021/08/02 12:06:04;;;;;;;2.10;1.30;;;17.50;99.90;;;;;;4928702;29;20486;-69
2021/08/02 12:08:31;;;;;;;1.20;1.10;;;17.10;99.90;;;;;;4920879;29;20845;-70
2021/08/02 12:11:00;;;;;;;3.33;3.07;;;17.00;99.90;;;;;;4917806;29;20575;-71
2021/08/02 12:13:39;;;;;;;1.20;1.13;;;16.90;99.90;;;;;;4917131;29;20470;-71
2021/08/02 12:16:06;;;;;;;0.60;0.60;;;16.80;99.90;;;;;;4918023;29;20557;-71
2021/08/02 12:18:33;;;;;;;2.00;1.80;;;16.80;99.90;;;;;;4917500;29;20475;-70
2021/08/02 12:21:17;;;;;;;4.30;1.53;;;16.70;99.90;;;;;;4921045;29;20505;-70
2021/08/02 12:23:44;;;;;;;2.40;1.27;;;16.70;99.90;;;;;;4918050;29;20525;-69
2021/08/02 12:26:18;;;;;;;1.30;1.30;;;16.70;99.90;;;;;;4917416;29;20893;-72
2021/08/02 12:28:46;;;;;;;4.00;1.27;;;16.70;99.90;;;;;;4916970;29;20552;-70
2021/08/02 12:31:14;;;;;;;1.23;1.23;;;16.70;99.90;;;;;;4917896;29;21054;-71
2021/08/02 12:33:41;;;;;;;0.97;0.97;;;16.80;99.90;;;;;;4917569;29;20470;-70
2021/08/02 12:36:09;;;;;;;1.33;1.13;;;16.80;99.90;;;;;;4917792;29;20549;-70
2021/08/02 12:38:41;;;;;;;1.17;1.17;;;16.80;99.90;;;;;;4918139;29;20474;-71
2021/08/02 12:41:08;;;;;;;1.60;1.50;;;16.90;99.90;;;;;;4917927;29;20601;-70
2021/08/02 12:43:34;;;;;;;0.80;0.80;;;17.10;99.90;;;;;;4929756;29;20795;-70
2021/08/02 12:46:02;;;;;;;1.33;1.30;;;17.30;99.90;;;;;;4927477;29;20921;-70
2021/08/02 12:48:29;;;;;;;1.50;1.27;;;17.50;99.90;;;;;;4930086;29;20465;-69
2021/08/02 12:50:56;;;;;;;1.07;1.07;;;17.60;99.90;;;;;;4921345;29;20513;-70
2021/08/02 12:53:24;;;;;;;1.13;1.03;;;17.60;99.90;;;;;;4925434;29;20465;-69
2021/08/02 12:55:51;;;;;;;1.60;1.60;;;17.60;99.90;;;;;;4926012;29;20470;-69
2021/08/02 12:58:17;;;;;;;1.20;1.10;;;17.70;99.90;;;;;;4930085;29;20469;-70
2021/08/02 13:00:44;;;;;;;1.17;1.17;;;17.70;99.90;;;;;;4899883;29;1056544;-71
2021/08/02 13:03:11;;;;;;;1.20;1.20;;;17.80;99.90;;;;;;4931476;29;20558;-70
2021/08/02 13:05:37;;;;;;;1.17;1.17;;;17.80;99.90;;;;;;4917859;29;20486;-71
2021/08/02 13:08:04;;;;;;;0.90;0.90;;;17.90;99.90;;;;;;4917478;29;20509;-71
2021/08/02 13:10:34;;;;;;;1.03;1.03;;;18.00;99.90;;;;;;4921745;29;20918;-70
2021/08/02 13:13:00;;;;;;;1.20;1.20;;;18.00;99.90;;;;;;4924976;29;20477;-69
2021/08/02 13:15:27;;;;;;;4.90;1.30;;;18.00;99.90;;;;;;4918276;29;20482;-69
2021/08/02 13:17:54;;;;;;;1.40;1.30;;;18.20;99.90;;;;;;4918462;29;20489;-70
2021/08/02 13:20:21;;;;;;;1.90;1.80;;;18.30;99.90;;;;;;4924855;29;20466;-69
2021/08/02 13:22:51;;;;;;;1.00;1.00;;;18.20;99.90;;;;;;4923237;29;20833;-71
2021/08/02 13:28:04;;;;;;;1.43;1.33;;;18.40;99.90;;;;;;4925287;29;20973;-69
2021/08/02 13:30:31;;;;;;;0.90;0.90;;;18.50;99.90;;;;;;4921465;29;20482;-69
2021/08/02 13:32:58;;;;;;;1.20;1.20;;;18.60;99.90;;;;;;4921375;29;20467;-70
2021/08/02 13:35:24;;;;;;;0.90;0.90;;;18.70;99.90;;;;;;4919065;29;20490;-69
2021/08/02 13:37:51;;;;;;;0.80;0.80;;;18.80;99.90;;;;;;4925016;29;20507;-69
2021/08/02 13:40:18;;;;;;;1.43;0.93;;;18.90;99.90;;;;;;4930958;29;20473;-69
2021/08/02 13:42:48;;;;;;;1.20;1.20;;;18.90;99.90;;;;;;4923296;29;20511;-69
2021/08/02 13:45:16;;;;;;;1.23;1.23;;;19.00;99.90;;;;;;4918090;29;20493;-71
2021/08/02 13:47:43;;;;;;;2.50;1.03;;;19.00;99.90;;;;;;4935715;29;20978;-71
2021/08/02 13:50:10;;;;;;;1.20;0.90;;;19.10;99.90;;;;;;4936385;29;20561;-70
2021/08/02 13:52:37;;;;;;;2.57;1.10;;;19.10;99.90;;;;;;4935820;29;20465;-72
2021/08/02 13:55:05;;;;;;;1.10;1.10;;;19.10;99.90;;;;;;4922833;29;20470;-70
2021/08/02 13:57:33;;;;;;;0.90;0.90;;;19.20;99.90;;;;;;4917133;29;20466;-69
2021/08/02 14:00:00;;;;;;;0.93;0.93;;;19.30;99.90;;;;;;4923384;29;20982;-68
2021/08/02 14:02:28;;;;;;;1.07;1.07;;;19.40;99.90;;;;;;4935166;29;20521;-69
2021/08/02 14:04:54;;;;;;;0.90;0.90;;;19.60;99.90;;;;;;4936148;29;20918;-68
2021/08/02 14:07:22;;;;;;;1.73;0.90;;;19.70;99.90;;;;;;4934083;29;20521;-70
2021/08/02 14:09:49;;;;;;;0.90;0.90;;;19.90;99.90;;;;;;4929374;29;20483;-69
2021/08/02 14:12:19;;;;;;;1.03;1.03;;;20.10;99.90;;;;;;4922033;29;20893;-68
2021/08/02 14:14:47;;;;;;;1.00;0.90;;;20.30;99.90;;;;;;4916237;29;20450;-67
2021/08/02 14:17:20;;;;;;;0.77;0.77;;;20.50;99.90;;;;;;4924440;29;20549;-68
2021/08/02 14:19:48;;;;;;;0.83;0.83;;;20.60;99.90;;;;;;4934204;29;20517;-68
2021/08/02 14:22:15;;;;;;;0.90;0.90;;;20.90;99.90;;;;;;4918028;29;20994;-68
2021/08/02 14:24:42;;;;;;;1.97;0.77;;;21.10;99.90;;;;;;4915990;29;20474;-71
2021/08/02 14:27:09;;;;;;;0.70;0.70;;;21.20;99.90;;;;;;4921509;29;20517;-71
2021/08/02 14:29:36;;;;;;;1.30;1.10;;;21.50;99.90;;;;;;4920463;29;20922;-70
2021/08/02 14:32:04;;;;;;;1.00;1.00;;;21.40;99.90;;;;;;4928422;29;20496;-70
2021/08/02 14:34:31;;;;;;;1.13;1.00;;;21.40;99.90;;;;;;4924997;29;20529;-70
2021/08/02 14:37:01;;;;;;;0.80;0.80;;;21.30;99.90;;;;;;4927742;29;20544;-70
2021/08/02 14:39:30;;;;;;;2.80;1.70;;;21.10;99.90;;;;;;4917465;29;20463;-69
2021/08/02 14:42:01;;;;;;;4.23;1.30;;;20.90;99.90;;;;;;4925873;29;20666;-70
2021/08/02 14:44:37;;;;;;;4.53;1.20;;;20.90;99.90;;;;;;4917980;29;20489;-70
2021/08/02 14:47:08;;;;;;;1.13;1.13;;;20.80;99.90;;;;;;4917806;29;20494;-70
2021/08/02 14:49:48;;;;;;;1.03;1.03;;;20.90;99.90;;;;;;4914418;29;20501;-70
2021/08/02 14:52:18;;;;;;;0.87;0.87;;;20.80;99.90;;;;;;4921525;29;20493;-71
2021/08/02 14:54:46;;;;;;;2.10;1.20;;;20.80;99.90;;;;;;4917142;29;20478;-70
2021/08/02 14:57:15;;;;;;;1.70;0.80;;;20.70;99.90;;;;;;4920540;29;20561;-70
2021/08/02 14:59:43;;;;;;;0.90;0.90;;;20.70;99.90;;;;;;4916454;29;20569;-71
2021/08/02 15:02:11;;;;;;;1.10;1.10;;;20.70;99.90;;;;;;4924274;29;20491;-68
2021/08/02 15:04:39;;;;;;;0.73;0.60;;;20.60;99.90;;;;;;4925106;29;20470;-71
2021/08/02 15:07:08;;;;;;;0.90;0.90;;;20.40;99.90;;;;;;4923796;28;20534;-70
2021/08/02 15:09:37;;;;;;;1.10;1.00;;;20.30;99.90;;;;;;4918352;29;20520;-69
2021/08/02 15:12:04;;;;;;;1.73;0.90;;;20.40;99.90;;;;;;4918786;29;20494;-69
2021/08/02 15:14:31;;;;;;;1.13;1.03;;;20.50;99.90;;;;;;4928321;29;20516;-70
2021/08/02 15:16:59;;;;;;;1.43;1.43;;;20.60;99.90;;;;;;4915113;29;20481;-70
2021/08/02 15:19:34;;;;;;;1.63;0.90;;;20.70;99.90;;;;;;4915577;29;20955;-70
2021/08/02 15:22:05;;;;;;;0.73;0.73;;;20.70;99.90;;;;;;4916295;29;20568;-70
2021/08/02 15:24:33;;;;;;;1.20;1.10;;;20.60;99.90;;;;;;4915239;29;20959;-69
2021/08/02 15:27:06;;;;;;;1.23;0.83;;;20.70;99.90;;;;;;4918957;29;20585;-69
2021/08/02 15:29:33;;;;;;;2.67;0.87;;;20.80;99.90;;;;;;4915615;29;20820;-68
2021/08/02 15:32:02;;;;;;;1.30;1.23;;;20.90;99.90;;;;;;4925296;29;20509;-69
2021/08/02 15:34:28;;;;;;;1.00;1.00;;;21.10;99.90;;;;;;4916865;29;20462;-68
2021/08/02 15:36:55;;;;;;;0.90;0.80;;;21.20;99.90;;;;;;4915057;29;20466;-71
2021/08/02 15:39:22;;;;;;;2.23;0.70;;;21.20;99.90;;;;;;4915957;29;20478;-69
2021/08/02 15:41:51;;;;;;;0.67;0.67;;;21.10;99.90;;;;;;4918110;29;20820;-71
2021/08/02 15:44:26;;;;;;;0.80;0.80;;;21.10;99.90;;;;;;4924942;29;20513;-69
2021/08/02 15:46:53;;;;;;;0.53;0.53;;;21.00;99.90;;;;;;4924763;29;20553;-68
2021/08/02 15:49:21;;;;;;;0.50;0.50;;;20.90;99.90;;;;;;4925499;29;20513;-68
2021/08/02 15:51:52;;;;;;;1.00;1.00;;;20.80;99.90;;;;;;4926688;29;21025;-69
2021/08/02 15:54:22;;;;;;;1.03;1.03;;;20.80;99.90;;;;;;4919026;29;21102;-68
2021/08/02 15:56:54;;;;;;;1.50;0.70;;;20.80;99.90;;;;;;4921870;29;20470;-69
2021/08/02 15:59:28;;;;;;;1.23;0.70;;;20.90;99.90;;;;;;4926342;29;20872;-68
2021/08/02 16:01:56;;;;;;;0.70;0.70;;;20.80;99.90;;;;;;4921262;29;20553;-68
2021/08/02 16:04:28;;;;;;;0.80;0.80;;;20.60;99.90;;;;;;4934001;29;20469;-68
2021/08/02 16:07:00;;;;;;;0.87;0.87;;;20.50;99.90;;;;;;4917650;29;20653;-68
2021/08/02 16:09:32;;;;;;;0.83;0.80;;;20.40;99.90;;;;;;4922659;29;20496;-68
2021/08/02 16:12:08;;;;;;;2.20;0.80;;;20.40;99.90;;;;;;4923991;29;20486;-69
2021/08/02 16:14:36;;;;;;;1.27;0.80;;;20.30;99.90;;;;;;4929332;29;20533;-67
2021/08/02 16:17:07;;;;;;;0.80;0.80;;;20.20;99.90;;;;;;4924368;29;20458;-68
2021/08/02 16:19:34;;;;;;;0.70;0.70;;;20.20;99.90;;;;;;4925091;29;20560;-68
2021/08/02 16:22:01;;;;;;;1.40;0.70;;;20.00;99.90;;;;;;4914987;29;20827;-68
2021/08/02 16:24:27;;;;;;;0.77;0.60;;;19.70;99.90;;;;;;4914245;29;20466;-67
2021/08/02 16:26:54;;;;;;;0.70;0.53;;;19.60;99.90;;;;;;4917167;29;20555;-69
2021/08/02 16:29:21;;;;;;;3.70;1.10;;;19.40;99.90;;;;;;4916686;29;20860;-68
2021/08/02 16:31:49;;;;;;;0.73;0.67;;;19.40;99.90;;;;;;4918731;29;20259;-67
2021/08/02 16:34:16;;;;;;;2.50;0.93;;;19.20;99.90;;;;;;4920915;29;20965;-69
2021/08/02 16:36:43;;;;;;;0.70;0.70;;;19.10;99.90;;;;;;4921675;29;20471;-68
2021/08/02 16:39:09;;;;;;;0.63;0.63;;;18.90;99.90;;;;;;4935210;29;20948;-67
2021/08/02 16:41:36;;;;;;;1.10;0.60;;;18.90;99.90;;;;;;4933243;29;20500;-68
2021/08/02 16:44:04;;;;;;;1.50;0.80;;;18.80;99.90;;;;;;4936416;29;20481;-68
2021/08/02 16:46:32;;;;;;;2.67;0.60;;;18.70;99.90;;;;;;4935770;29;20495;-67
2021/08/02 16:49:00;;;;;;;0.60;0.60;;;18.70;99.90;;;;;;4923866;29;20485;-68
2021/08/02 16:51:27;;;;;;;0.80;0.80;;;18.60;99.90;;;;;;4922859;29;20644;-68
2021/08/02 16:53:53;;;;;;;0.90;0.90;;;18.50;99.90;;;;;;4919079;29;20474;-69